createdAt,value
2023-05-13T00:00:38.467Z,9.28
2023-05-13T00:01:38.721Z,9.28
2023-05-13T00:02:40.977Z,9.27
2023-05-13T00:03:41.248Z,9.25
2023-05-13T00:04:48.802Z,9.23
2023-05-13T00:05:42.921Z,9.27
2023-05-13T00:06:40.116Z,9.25
2023-05-13T00:07:41.281Z,9.25
2023-05-13T00:08:42.272Z,9.28
2023-05-13T00:09:42.821Z,9.28
2023-05-13T00:10:43.085Z,9.24
2023-05-13T00:11:41.262Z,9.27
2023-05-13T00:12:42.533Z,9.28
2023-05-13T00:13:45.591Z,9.25
2023-05-13T00:14:42.768Z,9.24
2023-05-13T00:15:43.959Z,9.23
2023-05-13T00:16:42.275Z,9.21
2023-05-13T00:17:42.670Z,9.16
2023-05-13T00:18:43.306Z,9.18
2023-05-13T00:19:43.298Z,9.13
2023-05-13T00:21:25.680Z,9.12
2023-05-13T00:22:26.830Z,9.05
2023-05-13T00:23:27.030Z,9.02
2023-05-13T00:24:26.011Z,9.04
2023-05-13T00:25:28.164Z,9.02
2023-05-13T00:26:26.265Z,9.01
2023-05-13T00:27:26.412Z,8.97
2023-05-13T00:28:26.943Z,8.91
2023-05-13T00:29:27.526Z,8.96
2023-05-13T00:30:26.655Z,9.01
2023-05-13T00:31:26.896Z,9.06
2023-05-13T00:32:26.916Z,9.06
2023-05-13T00:33:28.703Z,9.04
2023-05-13T00:34:29.128Z,9.06
2023-05-13T00:35:30.159Z,9.05
2023-05-13T00:36:28.945Z,9.05
2023-05-13T00:37:30.037Z,9.06
2023-05-13T00:38:28.195Z,9.02
2023-05-13T00:39:30.347Z,9.04
2023-05-13T00:40:30.469Z,9.04
2023-05-13T00:41:30.683Z,9.02
2023-05-13T00:42:29.298Z,9.02
2023-05-13T00:43:29.030Z,9.01
2023-05-13T00:44:31.921Z,9.04
2023-05-13T00:45:29.626Z,9.04
2023-05-13T00:46:29.932Z,9.04
2023-05-13T00:47:31.191Z,9.04
2023-05-13T00:48:31.423Z,8.99
2023-05-13T00:49:32.504Z,8.96
2023-05-13T00:50:30.637Z,8.91
2023-05-13T00:51:32.781Z,8.90
2023-05-13T00:52:30.892Z,8.91
2023-05-13T00:53:31.076Z,8.94
2023-05-13T00:54:33.233Z,8.96
2023-05-13T00:55:32.323Z,9.01
2023-05-13T00:56:31.455Z,9.01
2023-05-13T00:57:34.114Z,8.97
2023-05-13T00:58:31.750Z,8.94
2023-05-13T00:59:32.508Z,8.96
2023-05-13T01:00:34.155Z,8.96
2023-05-13T01:01:32.435Z,8.93
2023-05-13T01:02:34.708Z,8.90
2023-05-13T01:03:34.964Z,8.90
2023-05-13T01:04:35.200Z,8.84
2023-05-13T01:05:34.297Z,8.76
2023-05-13T01:06:35.474Z,8.72
2023-05-13T01:07:33.641Z,8.68
2023-05-13T01:08:34.796Z,8.63
2023-05-13T01:09:35.979Z,8.60
2023-05-13T01:10:34.205Z,8.54
2023-05-13T01:11:34.431Z,8.53
2023-05-13T01:12:36.544Z,8.48
2023-05-13T01:13:36.813Z,8.54
2023-05-13T01:14:35.930Z,8.54
2023-05-13T01:15:36.680Z,8.58
2023-05-13T01:16:36.414Z,8.62
2023-05-13T01:17:35.612Z,8.65
2023-05-13T01:18:35.899Z,8.66
2023-05-13T01:19:36.124Z,8.65
2023-05-13T01:20:36.465Z,8.63
2023-05-13T01:21:36.648Z,8.62
2023-05-13T01:22:38.710Z,8.62
2023-05-13T01:23:37.145Z,8.60
2023-05-13T01:24:39.537Z,8.63
2023-05-13T01:25:37.851Z,8.65
2023-05-13T01:26:37.990Z,8.66
2023-05-13T01:27:38.230Z,8.72
2023-05-13T01:28:38.410Z,8.69
2023-05-13T01:29:38.540Z,8.68
2023-05-13T01:30:38.726Z,8.69
2023-05-13T01:31:40.876Z,8.65
2023-05-13T01:32:40.205Z,8.66
2023-05-13T01:33:39.478Z,8.58
2023-05-13T01:34:41.592Z,8.58
2023-05-13T01:35:41.685Z,8.55
2023-05-13T01:36:40.980Z,8.53
2023-05-13T01:37:42.082Z,8.55
2023-05-13T01:38:40.210Z,8.51
2023-05-13T01:39:41.325Z,8.54
2023-05-13T01:40:40.609Z,8.57
2023-05-13T01:41:42.697Z,8.57
2023-05-13T01:42:42.876Z,8.60
2023-05-13T01:43:42.093Z,8.62
2023-05-13T01:44:43.306Z,8.62
2023-05-13T01:45:41.471Z,8.63
2023-05-13T01:46:41.812Z,8.63
2023-05-13T01:47:43.976Z,8.62
2023-05-13T01:48:42.148Z,8.62
2023-05-13T01:49:42.313Z,8.57
2023-05-13T01:50:42.440Z,8.57
2023-05-13T01:51:44.859Z,8.57
2023-05-13T01:52:44.936Z,8.53
2023-05-13T01:53:45.062Z,8.50
2023-05-13T01:54:45.169Z,8.48
2023-05-13T01:55:43.269Z,8.47
2023-05-13T01:56:43.605Z,8.48
2023-05-13T01:57:43.898Z,8.54
2023-05-13T01:58:44.160Z,8.60
2023-05-13T01:59:44.314Z,8.62
2023-05-13T02:00:45.554Z,8.60
2023-05-13T02:01:44.749Z,8.58
2023-05-13T02:02:47.279Z,8.57
2023-05-13T02:03:45.163Z,8.55
2023-05-13T02:04:45.486Z,8.50
2023-05-13T02:05:47.643Z,8.48
2023-05-13T02:06:48.245Z,8.44
2023-05-13T02:07:45.927Z,8.47
2023-05-13T02:08:47.660Z,8.47
2023-05-13T02:09:46.319Z,8.44
2023-05-13T02:10:47.418Z,8.42
2023-05-13T02:11:46.587Z,8.40
2023-05-13T02:12:47.551Z,8.44
2023-05-13T02:13:48.264Z,8.45
2023-05-13T02:14:47.506Z,8.45
2023-05-13T02:15:48.500Z,8.45
2023-05-13T02:16:49.729Z,8.47
2023-05-13T02:17:48.895Z,8.47
2023-05-13T02:18:48.152Z,8.44
2023-05-13T02:19:48.860Z,8.42
2023-05-13T02:20:49.943Z,8.44
2023-05-13T02:21:48.637Z,8.42
2023-05-13T02:22:48.902Z,8.42
2023-05-13T02:23:49.087Z,8.44
2023-05-13T02:24:51.221Z,8.42
2023-05-13T02:25:49.444Z,8.42
2023-05-13T02:26:51.542Z,8.39
2023-05-13T02:27:49.857Z,8.33
2023-05-13T02:28:51.012Z,8.29
2023-05-13T02:29:50.213Z,8.21
2023-05-13T02:30:50.380Z,8.18
2023-05-13T02:31:50.607Z,8.14
2023-05-13T02:32:50.833Z,8.10
2023-05-13T02:33:51.064Z,8.12
2023-05-13T02:34:54.767Z,8.15
2023-05-13T02:35:51.702Z,8.11
2023-05-13T02:36:52.101Z,8.12
2023-05-13T02:37:53.802Z,8.12
2023-05-13T02:38:54.390Z,8.11
2023-05-13T02:39:52.512Z,8.10
2023-05-13T02:40:52.779Z,8.07
2023-05-13T02:41:52.964Z,8.07
2023-05-13T02:42:55.103Z,8.08
2023-05-13T02:43:53.206Z,8.10
2023-05-13T02:44:54.329Z,8.12
2023-05-13T02:45:53.572Z,8.14
2023-05-13T02:46:54.708Z,8.11
2023-05-13T02:47:53.880Z,8.11
2023-05-13T02:48:54.195Z,8.14
2023-05-13T02:49:54.686Z,8.14
2023-05-13T02:50:54.336Z,8.12
2023-05-13T02:51:54.459Z,8.12
2023-05-13T02:52:58.218Z,8.10
2023-05-13T02:53:56.368Z,8.07
2023-05-13T02:54:57.715Z,8.04
2023-05-13T02:55:56.338Z,8.03
2023-05-13T02:56:58.129Z,7.96
2023-05-13T02:57:57.784Z,7.94
2023-05-13T02:58:55.905Z,7.94
2023-05-13T02:59:57.025Z,7.90
2023-05-13T03:00:57.921Z,7.85
2023-05-13T03:01:58.623Z,7.82
2023-05-13T03:02:58.095Z,7.77
2023-05-13T03:03:58.813Z,7.75
2023-05-13T03:05:21.334Z,7.74
2023-05-13T03:05:59.057Z,7.75
2023-05-13T03:06:59.931Z,7.71
2023-05-13T03:07:57.537Z,7.69
2023-05-13T03:08:57.721Z,7.66
2023-05-13T03:09:59.807Z,7.66
2023-05-13T03:10:58.187Z,7.69
2023-05-13T03:11:58.392Z,7.67
2023-05-13T03:12:58.625Z,7.66
2023-05-13T03:13:58.755Z,7.63
2023-05-13T03:15:01.826Z,7.66
2023-05-13T03:16:02.307Z,7.71
2023-05-13T03:17:00.734Z,7.72
2023-05-13T03:17:59.500Z,7.72
2023-05-13T03:19:01.732Z,7.74
2023-05-13T03:19:59.935Z,7.75
2023-05-13T03:21:00.117Z,7.74
2023-05-13T03:22:00.322Z,7.74
2023-05-13T03:23:00.617Z,7.69
2023-05-13T03:24:00.765Z,7.69
2023-05-13T03:25:03.201Z,7.69
2023-05-13T03:26:04.721Z,7.71
2023-05-13T03:27:01.484Z,7.71
2023-05-13T03:28:02.645Z,7.72
2023-05-13T03:29:03.734Z,7.74
2023-05-13T03:30:01.960Z,7.72
2023-05-13T03:31:02.274Z,7.74
2023-05-13T03:32:03.459Z,7.74
2023-05-13T03:33:02.921Z,7.78
2023-05-13T03:34:05.004Z,7.77
2023-05-13T03:35:25.664Z,7.75
2023-05-13T03:36:03.341Z,7.79
2023-05-13T03:37:06.427Z,7.85
2023-05-13T03:38:03.617Z,7.85
2023-05-13T03:39:03.794Z,7.89
2023-05-13T03:40:03.959Z,7.90
2023-05-13T03:41:04.066Z,7.90
2023-05-13T03:42:04.279Z,7.92
2023-05-13T03:43:04.419Z,7.89
2023-05-13T03:44:04.597Z,7.89
2023-05-13T03:45:08.647Z,7.90
2023-05-13T03:46:04.803Z,7.90
2023-05-13T03:47:05.479Z,7.94
2023-05-13T03:48:06.721Z,7.94
2023-05-13T03:49:05.394Z,7.97
2023-05-13T03:50:07.556Z,8.00
2023-05-13T03:51:07.188Z,8.10
2023-05-13T03:52:07.807Z,8.14
2023-05-13T03:53:06.009Z,8.15
2023-05-13T03:54:06.954Z,8.20
2023-05-13T03:55:09.332Z,8.21
2023-05-13T03:56:11.739Z,8.20
2023-05-13T03:57:08.915Z,8.22
2023-05-13T03:58:08.940Z,8.25
2023-05-13T03:59:08.576Z,8.21
2023-05-13T04:00:07.918Z,8.25
2023-05-13T04:01:08.112Z,8.26
2023-05-13T04:02:08.360Z,8.33
2023-05-13T04:03:10.681Z,8.39
2023-05-13T04:04:10.767Z,8.42
2023-05-13T04:06:09.093Z,8.53
2023-05-13T04:07:12.285Z,8.57
2023-05-13T04:08:10.396Z,8.58
2023-05-13T04:09:09.535Z,8.58
2023-05-13T04:10:12.355Z,8.57
2023-05-13T04:11:10.029Z,8.55
2023-05-13T04:12:10.177Z,8.54
2023-05-13T04:13:10.392Z,8.53
2023-05-13T04:14:10.704Z,8.53
2023-05-13T04:15:12.461Z,8.55
2023-05-13T04:16:13.085Z,8.58
2023-05-13T04:17:11.403Z,8.62
2023-05-13T04:18:11.571Z,8.66
2023-05-13T04:19:11.948Z,8.72
2023-05-13T04:20:11.675Z,8.73
2023-05-13T04:21:11.876Z,8.78
2023-05-13T04:22:12.117Z,8.79
2023-05-13T04:23:13.247Z,8.83
2023-05-13T04:24:14.461Z,8.83
2023-05-13T04:25:14.555Z,8.81
2023-05-13T04:26:12.730Z,8.79
2023-05-13T04:27:12.962Z,8.78
2023-05-13T04:28:13.121Z,8.83
2023-05-13T04:29:13.234Z,8.86
2023-05-13T04:30:13.914Z,8.87
2023-05-13T04:31:13.583Z,8.94
2023-05-13T04:32:13.731Z,8.96
2023-05-13T04:33:14.013Z,9.02
2023-05-13T04:34:14.292Z,9.10
2023-05-13T04:35:21.880Z,9.23
2023-05-13T04:36:15.201Z,9.34
2023-05-13T04:37:14.987Z,9.46
2023-05-13T04:38:15.175Z,9.60
2023-05-13T04:39:15.448Z,9.68
2023-05-13T04:40:15.670Z,9.71
2023-05-13T04:41:16.093Z,9.70
2023-05-13T04:42:16.333Z,9.75
2023-05-13T04:43:16.561Z,9.79
2023-05-13T04:44:17.626Z,9.93
2023-05-13T04:45:19.051Z,10.03
2023-05-13T04:46:17.397Z,10.17
2023-05-13T04:47:17.935Z,10.28
2023-05-13T04:48:17.739Z,10.32
2023-05-13T04:49:17.863Z,10.28
2023-05-13T04:50:18.369Z,10.24
2023-05-13T04:51:19.620Z,10.26
2023-05-13T04:52:18.662Z,10.33
2023-05-13T04:53:18.847Z,10.37
2023-05-13T04:54:20.628Z,10.43
2023-05-13T04:55:20.365Z,10.53
2023-05-13T04:56:21.586Z,10.63
2023-05-13T04:57:20.057Z,10.70
2023-05-13T04:58:20.510Z,10.78
2023-05-13T04:59:21.666Z,10.91
2023-05-13T05:00:21.187Z,11.07
2023-05-13T05:01:21.663Z,11.27
2023-05-13T05:02:21.592Z,11.39
2023-05-13T05:03:22.063Z,11.54
2023-05-13T05:04:23.573Z,11.68
2023-05-13T05:05:26.835Z,11.74
2023-05-13T05:06:21.950Z,11.83
2023-05-13T05:07:24.325Z,11.85
2023-05-13T05:08:22.520Z,11.86
2023-05-13T05:09:22.666Z,11.82
2023-05-13T05:10:22.927Z,11.83
2023-05-13T05:11:25.195Z,11.83
2023-05-13T05:12:23.373Z,11.82
2023-05-13T05:13:23.550Z,11.80
2023-05-13T05:14:27.716Z,11.86
2023-05-13T05:15:26.152Z,11.93
2023-05-13T05:16:24.268Z,12.09
2023-05-13T05:17:24.720Z,12.20
2023-05-13T05:18:24.498Z,12.15
2023-05-13T05:19:24.867Z,12.09
2023-05-13T05:20:25.021Z,11.97
2023-05-13T05:21:27.088Z,11.86
2023-05-13T05:22:25.500Z,11.86
2023-05-13T05:23:27.737Z,11.78
2023-05-13T05:24:25.862Z,11.75
2023-05-13T05:25:27.192Z,11.72
2023-05-13T05:26:26.324Z,11.71
2023-05-13T05:27:28.499Z,11.67
2023-05-13T05:28:26.707Z,11.67
2023-05-13T05:29:27.166Z,11.71
2023-05-13T05:30:26.940Z,11.78
2023-05-13T05:31:27.900Z,11.74
2023-05-13T05:32:28.787Z,11.70
2023-05-13T05:33:28.259Z,11.80
2023-05-13T05:34:27.598Z,12.04
2023-05-13T05:35:29.913Z,12.30
2023-05-13T05:36:30.079Z,12.56
2023-05-13T05:37:29.288Z,12.77
2023-05-13T05:38:28.495Z,12.92
2023-05-13T05:39:30.004Z,13.06
2023-05-13T05:40:29.593Z,13.11
2023-05-13T05:41:30.294Z,13.04
2023-05-13T05:42:29.899Z,13.03
2023-05-13T05:43:30.000Z,13.09
2023-05-13T05:44:31.585Z,13.21
2023-05-13T05:45:31.232Z,13.38
2023-05-13T05:46:30.812Z,13.44
2023-05-13T05:47:29.570Z,13.33
2023-05-13T05:48:29.757Z,13.38
2023-05-13T05:49:29.951Z,13.46
2023-05-13T05:50:30.161Z,13.43
2023-05-13T05:51:32.056Z,13.47
2023-05-13T05:52:30.834Z,13.58
2023-05-13T05:53:33.767Z,13.65
2023-05-13T05:54:31.470Z,13.67
2023-05-13T05:55:32.449Z,13.70
2023-05-13T05:56:31.594Z,13.73
2023-05-13T05:57:31.938Z,13.83
2023-05-13T05:58:34.049Z,13.96
2023-05-13T05:59:32.382Z,14.13
2023-05-13T06:00:32.600Z,14.35
2023-05-13T06:01:34.673Z,14.64
2023-05-13T06:02:33.734Z,14.93
2023-05-13T06:03:34.467Z,15.19
2023-05-13T06:04:35.319Z,15.45
2023-05-13T06:05:35.359Z,15.70
2023-05-13T06:06:35.016Z,15.99
2023-05-13T06:07:34.441Z,16.23
2023-05-13T06:08:34.150Z,16.44
2023-05-13T06:09:36.270Z,16.67
2023-05-13T06:10:34.503Z,16.81
2023-05-13T06:11:36.644Z,17.00
2023-05-13T06:12:36.832Z,17.38
2023-05-13T06:13:36.061Z,17.66
2023-05-13T06:14:35.915Z,17.87
2023-05-13T06:15:35.725Z,18.00
2023-05-13T06:16:35.895Z,18.12
2023-05-13T06:17:38.592Z,18.25
2023-05-13T06:18:36.395Z,18.43
2023-05-13T06:19:37.790Z,18.59
2023-05-13T06:20:36.934Z,18.73
2023-05-13T06:21:39.061Z,18.87
2023-05-13T06:22:38.134Z,19.01
2023-05-13T06:23:37.430Z,19.13
2023-05-13T06:24:39.078Z,19.21
2023-05-13T06:25:38.517Z,19.32
2023-05-13T06:26:39.395Z,19.47
2023-05-13T06:27:38.066Z,19.61
2023-05-13T06:28:38.250Z,19.70
2023-05-13T06:29:39.190Z,19.72
2023-05-13T06:30:40.199Z,19.72
2023-05-13T06:31:39.796Z,19.80
2023-05-13T06:32:42.711Z,19.72
2023-05-13T06:33:39.157Z,19.51
2023-05-13T06:34:39.392Z,19.51
2023-05-13T06:35:40.604Z,19.54
2023-05-13T06:36:39.892Z,19.38
2023-05-13T06:37:42.012Z,19.06
2023-05-13T06:38:41.337Z,18.73
2023-05-13T06:39:40.570Z,18.64
2023-05-13T06:40:40.788Z,18.67
2023-05-13T06:41:41.203Z,18.80
2023-05-13T06:42:41.117Z,18.90
2023-05-13T06:43:41.421Z,18.92
2023-05-13T06:44:43.392Z,19.01
2023-05-13T06:45:42.689Z,18.92
2023-05-13T06:46:41.900Z,18.83
2023-05-13T06:47:42.137Z,18.97
2023-05-13T06:48:44.394Z,19.24
2023-05-13T06:49:42.590Z,19.40
2023-05-13T06:50:42.768Z,19.47
2023-05-13T06:51:42.972Z,19.54
2023-05-13T06:52:43.166Z,19.75
2023-05-13T06:53:45.225Z,19.94
2023-05-13T06:54:44.465Z,20.08
2023-05-13T06:55:44.550Z,20.23
2023-05-13T06:56:44.375Z,20.41
2023-05-13T06:57:44.023Z,20.69
2023-05-13T06:58:44.798Z,21.04
2023-05-13T06:59:44.387Z,21.34
2023-05-13T07:00:44.645Z,21.54
2023-05-13T07:01:46.282Z,21.72
2023-05-13T07:02:45.621Z,21.95
2023-05-13T07:03:46.925Z,22.12
2023-05-13T07:04:48.193Z,22.14
2023-05-13T07:05:47.438Z,21.99
2023-05-13T07:06:48.783Z,21.76
2023-05-13T07:07:46.459Z,21.61
2023-05-13T07:08:46.734Z,21.69
2023-05-13T07:09:47.765Z,21.83
2023-05-13T07:10:47.821Z,21.42
2023-05-13T07:11:47.665Z,20.93
2023-05-13T07:12:47.508Z,20.64
2023-05-13T07:13:48.701Z,21.01
2023-05-13T07:14:47.824Z,21.53
2023-05-13T07:15:49.253Z,21.61
2023-05-13T07:16:48.021Z,21.38
2023-05-13T07:17:52.272Z,21.44
2023-05-13T07:18:48.722Z,21.41
2023-05-13T07:19:51.828Z,21.75
2023-05-13T07:20:49.098Z,21.64
2023-05-13T07:21:51.174Z,21.44
2023-05-13T07:22:50.739Z,21.11
2023-05-13T07:23:50.429Z,20.58
2023-05-13T07:24:49.567Z,19.91
2023-05-13T07:25:50.765Z,19.36
2023-05-13T07:26:51.869Z,18.82
2023-05-13T07:27:50.659Z,18.47
2023-05-13T07:28:51.887Z,18.27
2023-05-13T07:29:52.181Z,18.13
2023-05-13T07:30:50.905Z,18.04
2023-05-13T07:31:51.753Z,18.00
2023-05-13T07:32:53.843Z,17.94
2023-05-13T07:33:54.533Z,17.87
2023-05-13T07:34:54.681Z,17.81
2023-05-13T07:35:53.090Z,17.78
2023-05-13T07:36:53.825Z,17.74
2023-05-13T07:37:53.003Z,17.76
2023-05-13T07:38:53.557Z,17.76
2023-05-13T07:39:53.930Z,17.79
2023-05-13T07:40:54.401Z,17.85
2023-05-13T07:41:54.346Z,18.15
2023-05-13T07:42:54.951Z,19.20
2023-05-13T07:43:54.284Z,20.27
2023-05-13T07:44:54.454Z,21.27
2023-05-13T07:45:55.556Z,22.12
2023-05-13T07:46:55.599Z,22.89
2023-05-13T07:47:56.604Z,23.24
2023-05-13T07:48:58.300Z,23.23
2023-05-13T07:49:56.986Z,22.96
2023-05-13T07:50:55.872Z,22.75
2023-05-13T07:51:56.521Z,22.50
2023-05-13T07:52:55.641Z,22.28
2023-05-13T07:53:57.728Z,21.99
2023-05-13T07:54:55.878Z,21.71
2023-05-13T07:55:56.639Z,21.45
2023-05-13T07:56:57.695Z,21.45
2023-05-13T07:57:57.294Z,21.95
2023-05-13T07:58:57.273Z,21.81
2023-05-13T07:59:57.146Z,21.88
2023-05-13T08:00:56.752Z,22.28
2023-05-13T08:01:56.905Z,22.89
2023-05-13T08:02:57.096Z,23.08
2023-05-13T08:03:59.064Z,23.12
2023-05-13T08:05:08.692Z,22.90
2023-05-13T08:05:59.329Z,23.20
2023-05-13T08:06:58.468Z,23.67
2023-05-13T08:07:58.502Z,23.97
2023-05-13T08:08:58.307Z,24.37
2023-05-13T08:09:58.257Z,24.77
2023-05-13T08:10:58.776Z,25.05
2023-05-13T08:11:58.586Z,25.35
2023-05-13T08:12:58.238Z,25.64
2023-05-13T08:13:58.509Z,25.52
2023-05-13T08:14:59.011Z,25.59
2023-05-13T08:15:58.746Z,25.67
2023-05-13T08:16:58.893Z,25.54
2023-05-13T08:18:00.922Z,25.39
2023-05-13T08:19:00.355Z,25.20
2023-05-13T08:20:00.429Z,24.98
2023-05-13T08:21:00.526Z,24.82
2023-05-13T08:22:01.673Z,24.73
2023-05-13T08:23:03.568Z,24.59
2023-05-13T08:24:00.224Z,24.39
2023-05-13T08:25:03.330Z,24.35
2023-05-13T08:26:01.412Z,24.45
2023-05-13T08:27:01.575Z,24.57
2023-05-13T08:28:01.662Z,24.82
2023-05-13T08:29:01.630Z,25.02
2023-05-13T08:30:00.682Z,25.09
2023-05-13T08:31:01.863Z,25.15
2023-05-13T08:32:01.416Z,25.30
2023-05-13T08:33:01.291Z,25.13
2023-05-13T08:34:03.723Z,25.01
2023-05-13T08:35:03.813Z,24.80
2023-05-13T08:36:02.137Z,24.67
2023-05-13T08:37:02.600Z,24.71
2023-05-13T08:38:03.166Z,24.79
2023-05-13T08:39:03.051Z,24.88
2023-05-13T08:40:03.551Z,25.30
2023-05-13T08:41:03.665Z,25.71
2023-05-13T08:42:03.455Z,26.18
2023-05-13T08:43:03.644Z,26.54
2023-05-13T08:44:05.420Z,26.87
2023-05-13T08:45:03.555Z,27.05
2023-05-13T08:46:04.673Z,27.11
2023-05-13T08:47:04.313Z,26.80
2023-05-13T08:48:03.993Z,26.77
2023-05-13T08:49:08.134Z,26.83
2023-05-13T08:50:04.236Z,26.91
2023-05-13T08:51:04.289Z,26.91
2023-05-13T08:52:04.371Z,26.87
2023-05-13T08:53:04.836Z,26.83
2023-05-13T08:54:05.244Z,26.94
2023-05-13T08:55:06.734Z,27.09
2023-05-13T08:56:04.826Z,27.29
2023-05-13T08:57:05.027Z,27.35
2023-05-13T08:58:05.174Z,27.48
2023-05-13T08:59:06.153Z,27.74
2023-05-13T09:00:06.997Z,27.85
2023-05-13T09:01:05.680Z,27.98
2023-05-13T09:02:06.045Z,28.06
2023-05-13T09:03:08.066Z,28.11
2023-05-13T09:04:06.912Z,28.26
2023-05-13T09:05:21.051Z,28.21
2023-05-13T09:06:08.473Z,28.16
2023-05-13T09:07:07.686Z,28.07
2023-05-13T09:08:08.766Z,27.99
2023-05-13T09:09:07.102Z,27.89
2023-05-13T09:10:07.553Z,27.86
2023-05-13T09:11:07.266Z,27.86
2023-05-13T09:12:07.319Z,27.88
2023-05-13T09:13:07.392Z,27.85
2023-05-13T09:14:10.367Z,27.92
2023-05-13T09:15:08.322Z,27.98
2023-05-13T09:16:07.467Z,27.99
2023-05-13T09:17:07.712Z,27.99
2023-05-13T09:18:08.807Z,27.99
2023-05-13T09:19:10.033Z,28.01
2023-05-13T09:20:08.396Z,28.10
2023-05-13T09:21:08.521Z,28.10
2023-05-13T09:22:09.298Z,28.04
2023-05-13T09:23:09.307Z,28.16
2023-05-13T09:24:11.180Z,28.17
2023-05-13T09:25:13.243Z,28.10
2023-05-13T09:26:09.347Z,28.09
2023-05-13T09:27:09.799Z,28.14
2023-05-13T09:28:10.372Z,27.99
2023-05-13T09:29:10.919Z,27.16
2023-05-13T09:30:13.237Z,26.59
2023-05-13T09:31:10.788Z,25.98
2023-05-13T09:32:10.850Z,25.77
2023-05-13T09:33:11.546Z,25.64
2023-05-13T09:34:11.184Z,25.19
2023-05-13T09:35:12.251Z,24.61
2023-05-13T09:36:12.326Z,24.37
2023-05-13T09:37:11.600Z,24.24
2023-05-13T09:38:10.746Z,23.94
2023-05-13T09:39:11.427Z,23.72
2023-05-13T09:40:12.968Z,23.57
2023-05-13T09:41:11.474Z,23.83
2023-05-13T09:42:11.217Z,24.23
2023-05-13T09:43:13.807Z,24.69
2023-05-13T09:44:12.107Z,24.57
2023-05-13T09:45:11.702Z,24.37
2023-05-13T09:46:11.773Z,24.19
2023-05-13T09:47:11.991Z,24.00
2023-05-13T09:48:12.174Z,23.79
2023-05-13T09:49:13.126Z,23.58
2023-05-13T09:50:13.262Z,23.32
2023-05-13T09:51:12.456Z,23.71
2023-05-13T09:52:12.594Z,23.79
2023-05-13T09:53:17.602Z,23.60
2023-05-13T09:54:14.317Z,23.45
2023-05-13T09:55:13.428Z,23.53
2023-05-13T09:56:13.957Z,23.89
2023-05-13T09:57:15.037Z,24.37
2023-05-13T09:58:13.168Z,24.56
2023-05-13T09:59:15.232Z,24.83
2023-05-13T10:00:28.882Z,24.80
2023-05-13T10:01:13.681Z,25.05
2023-05-13T10:02:14.636Z,25.22
2023-05-13T10:03:13.804Z,25.25
2023-05-13T10:04:14.762Z,25.27
2023-05-13T10:05:15.212Z,25.15
2023-05-13T10:06:13.799Z,25.31
2023-05-13T10:07:15.832Z,25.07
2023-05-13T10:08:13.995Z,24.77
2023-05-13T10:09:15.968Z,24.41
2023-05-13T10:10:13.998Z,24.08
2023-05-13T10:11:16.036Z,23.80
2023-05-13T10:12:15.094Z,23.87
2023-05-13T10:13:15.126Z,24.16
2023-05-13T10:14:14.188Z,24.50
2023-05-13T10:15:15.274Z,24.56
2023-05-13T10:16:15.803Z,24.26
2023-05-13T10:17:15.078Z,23.90
2023-05-13T10:18:14.726Z,23.90
2023-05-13T10:19:14.904Z,23.85
2023-05-13T10:20:15.099Z,24.04
2023-05-13T10:21:16.200Z,24.31
2023-05-13T10:22:15.648Z,24.67
2023-05-13T10:23:15.208Z,24.95
2023-05-13T10:24:15.248Z,25.30
2023-05-13T10:25:16.310Z,25.39
2023-05-13T10:26:16.163Z,25.37
2023-05-13T10:27:16.688Z,25.39
2023-05-13T10:28:16.477Z,25.25
2023-05-13T10:29:18.044Z,24.95
2023-05-13T10:30:16.421Z,24.92
2023-05-13T10:31:16.499Z,25.05
2023-05-13T10:32:16.689Z,24.79
2023-05-13T10:33:16.954Z,24.42
2023-05-13T10:34:19.071Z,24.10
2023-05-13T10:35:18.492Z,23.83
2023-05-13T10:36:19.553Z,23.57
2023-05-13T10:37:17.225Z,23.49
2023-05-13T10:38:17.278Z,23.71
2023-05-13T10:39:18.749Z,23.92
2023-05-13T10:40:18.161Z,24.35
2023-05-13T10:41:17.371Z,24.57
2023-05-13T10:42:17.460Z,24.87
2023-05-13T10:43:19.162Z,25.15
2023-05-13T10:44:19.246Z,25.42
2023-05-13T10:45:19.870Z,25.64
2023-05-13T10:46:18.638Z,25.44
2023-05-13T10:47:18.384Z,25.50
2023-05-13T10:48:20.557Z,25.46
2023-05-13T10:49:18.638Z,25.65
2023-05-13T10:50:19.164Z,25.64
2023-05-13T10:51:18.798Z,25.59
2023-05-13T10:52:18.843Z,25.89
2023-05-13T10:53:20.376Z,26.09
2023-05-13T10:54:19.028Z,26.22
2023-05-13T10:55:21.113Z,26.04
2023-05-13T10:56:19.248Z,25.65
2023-05-13T10:57:21.470Z,25.27
2023-05-13T10:58:21.542Z,24.75
2023-05-13T10:59:19.632Z,24.22
2023-05-13T11:00:20.055Z,23.82
2023-05-13T11:01:21.713Z,23.45
2023-05-13T11:02:19.911Z,23.20
2023-05-13T11:03:19.894Z,22.96
2023-05-13T11:04:21.666Z,22.83
2023-05-13T11:05:20.586Z,22.80
2023-05-13T11:06:20.755Z,23.23
2023-05-13T11:07:22.968Z,23.55
2023-05-13T11:08:21.190Z,23.45
2023-05-13T11:09:21.270Z,23.38
2023-05-13T11:10:22.239Z,23.29
2023-05-13T11:11:21.539Z,23.17
2023-05-13T11:12:22.521Z,22.93
2023-05-13T11:13:21.776Z,22.77
2023-05-13T11:14:21.900Z,22.62
2023-05-13T11:15:22.229Z,22.49
2023-05-13T11:16:22.438Z,22.54
2023-05-13T11:17:22.522Z,22.77
2023-05-13T11:18:22.826Z,23.14
2023-05-13T11:19:22.990Z,23.60
2023-05-13T11:20:23.369Z,24.00
2023-05-13T11:21:23.133Z,24.26
2023-05-13T11:22:23.406Z,24.24
2023-05-13T11:23:23.506Z,24.23
2023-05-13T11:24:23.642Z,24.08
2023-05-13T11:25:23.702Z,24.23
2023-05-13T11:26:23.790Z,24.34
2023-05-13T11:27:23.862Z,24.45
2023-05-13T11:28:24.002Z,24.56
2023-05-13T11:29:24.698Z,24.68
2023-05-13T11:30:24.425Z,24.79
2023-05-13T11:31:26.720Z,24.82
2023-05-13T11:32:24.930Z,24.90
2023-05-13T11:33:25.066Z,24.98
2023-05-13T11:34:25.122Z,25.09
2023-05-13T11:35:28.926Z,25.24
2023-05-13T11:36:25.544Z,25.31
2023-05-13T11:37:25.585Z,25.31
2023-05-13T11:38:25.732Z,25.24
2023-05-13T11:39:25.820Z,25.16
2023-05-13T11:40:26.012Z,25.10
2023-05-13T11:41:26.184Z,25.05
2023-05-13T11:42:26.311Z,24.97
2023-05-13T11:43:28.325Z,25.01
2023-05-13T11:44:27.158Z,25.10
2023-05-13T11:45:31.172Z,25.17
2023-05-13T11:46:26.964Z,25.19
2023-05-13T11:47:27.068Z,25.07
2023-05-13T11:48:27.173Z,25.05
2023-05-13T11:49:28.188Z,25.06
2023-05-13T11:50:28.135Z,25.10
2023-05-13T11:51:28.794Z,25.16
2023-05-13T11:52:27.447Z,25.13
2023-05-13T11:53:27.520Z,25.09
2023-05-13T11:54:29.568Z,25.12
2023-05-13T11:55:27.643Z,25.09
2023-05-13T11:56:29.721Z,25.10
2023-05-13T11:57:28.390Z,25.17
2023-05-13T11:58:29.020Z,25.24
2023-05-13T11:59:38.616Z,25.25
2023-05-13T12:00:29.161Z,25.27
2023-05-13T12:01:30.740Z,25.22
2023-05-13T12:02:28.909Z,25.20
2023-05-13T12:03:31.097Z,25.20
2023-05-13T12:04:31.167Z,25.19
2023-05-13T12:05:31.898Z,25.16
2023-05-13T12:06:29.482Z,25.20
2023-05-13T12:07:32.163Z,25.17
2023-05-13T12:08:29.847Z,25.20
2023-05-13T12:09:33.828Z,25.31
2023-05-13T12:10:29.900Z,25.25
2023-05-13T12:11:30.002Z,25.19
2023-05-13T12:12:31.145Z,25.19
2023-05-13T12:13:30.237Z,25.15
2023-05-13T12:14:32.391Z,25.05
2023-05-13T12:15:30.411Z,25.06
2023-05-13T12:16:30.597Z,25.06
2023-05-13T12:17:30.668Z,25.05
2023-05-13T12:18:30.823Z,25.06
2023-05-13T12:19:30.865Z,25.09
2023-05-13T12:20:31.063Z,25.12
2023-05-13T12:21:31.125Z,25.17
2023-05-13T12:22:31.249Z,25.37
2023-05-13T12:23:31.353Z,25.54
2023-05-13T12:24:31.737Z,25.68
2023-05-13T12:25:31.415Z,25.72
2023-05-13T12:26:35.560Z,25.67
2023-05-13T12:27:31.724Z,25.61
2023-05-13T12:28:31.810Z,25.64
2023-05-13T12:29:31.984Z,25.69
2023-05-13T12:30:32.647Z,25.75
2023-05-13T12:31:32.300Z,25.80
2023-05-13T12:32:32.436Z,25.82
2023-05-13T12:33:34.022Z,25.72
2023-05-13T12:34:34.667Z,25.68
2023-05-13T12:35:34.316Z,25.67
2023-05-13T12:36:32.866Z,25.56
2023-05-13T12:37:35.064Z,25.54
2023-05-13T12:38:34.204Z,25.53
2023-05-13T12:39:33.375Z,25.52
2023-05-13T12:40:33.473Z,25.44
2023-05-13T12:41:34.056Z,25.46
2023-05-13T12:42:33.634Z,25.54
2023-05-13T12:43:33.841Z,25.62
2023-05-13T12:44:35.969Z,25.67
2023-05-13T12:45:34.081Z,25.69
2023-05-13T12:46:34.191Z,25.67
2023-05-13T12:47:36.874Z,25.69
2023-05-13T12:48:34.568Z,25.75
2023-05-13T12:49:34.697Z,25.83
2023-05-13T12:50:34.760Z,25.83
2023-05-13T12:51:34.948Z,25.67
2023-05-13T12:52:35.984Z,25.50
2023-05-13T12:53:35.915Z,25.38
2023-05-13T12:54:37.005Z,25.42
2023-05-13T12:55:35.200Z,25.46
2023-05-13T12:56:35.706Z,25.37
2023-05-13T12:57:36.142Z,25.35
2023-05-13T12:58:37.118Z,25.31
2023-05-13T12:59:35.181Z,25.22
2023-05-13T13:00:35.370Z,25.17
2023-05-13T13:01:35.504Z,25.06
2023-05-13T13:02:36.193Z,24.90
2023-05-13T13:03:37.830Z,24.69
2023-05-13T13:04:41.981Z,24.50
2023-05-13T13:05:38.013Z,24.29